Crittenden, NY (14038)

10:07 AM EDT on September 01, 2014 (GMT -0400)
Millgrove | Change Station
CLOSE
Current Station
Personal Weather Station
Location: Alden, NY
Elevation: 774 ft
Nearby Weather Stations

Elev 774 ft 42.95 °N, 78.55 °W | Updated 59 seconds ago

Mostly Cloudy
Mostly Cloudy
75.9 °F
Feels Like 76 °F
N
1.0
Wind Variable Wind from SSE
Gusts 3.0 mph

Today
High -- | Low -- °F
--% Chance of Precip.
Yesterday
High -- | Low -- °F
Precip. -- in
6:38 AM 7:48 PM
Waxing Crescent, 41% visible
Pressure 29.96 in
Visibility 10.0 miles
Clouds Scattered Clouds 1500 ft
Mostly Cloudy 2000 ft
Mostly Cloudy 3500 ft
Heat Index 76 °F
Dew Point 71 °F
Humidity 86%
Rainfall 0.00 in
Snow Depth Not available.
UV 2 out of 12
Pollen 8.90 out of 12
PM2.5 Good
Flu Activity Not available.
METAR KBUF 011354Z 20009KT 10SM SCT015 BKN020 BKN035 24/20 A2997 RMK AO2 SLP144 T02440200

More Conditions Fewer Conditions

Pressure 29.96 in
Visibility 10.0 miles
Clouds Scattered Clouds 1500 ft
Mostly Cloudy 2000 ft
Mostly Cloudy 3500 ft
Heat Index 76 °F
Dew Point 71 °F
Humidity 86%
Rainfall 0.00 in
Snow Depth Not available.
UV 2 out of 12
Pollen 8.90 out of 12
PM2.5 Good
Flu Activity Not available.
METAR KBUF 011354Z 20009KT 10SM SCT015 BKN020 BKN035 24/20 A2997 RMK AO2 SLP144 T02440200

More Conditions Fewer Conditions

10-Day Weather Forecast

Almanac

Astronomy

Sep. 01, 2014 Rise Set
Actual Time 6:38 AM EDT 7:48 PM EDT
Civil Twilight 6:09 AM EDT 8:17 PM EDT
Nautical Twilight 5:34 AM EDT 8:52 PM EDT
Astronomical Twilight 4:57 AM EDT 9:29 PM EDT
Moon 1:32 PM EDT 11:38 PM EDT
Length of Visible Light 14h 08m
Length of Day
13h 10m
Tomorrow will be 2m 48s shorter.
Waxing Crescent, 41% of the Moon is Illuminated
Today
Waxing Crescent
Sep 2
First Quarter
Sep 8
Full
Sep 15
Last Quarter
Sep 24
New

Today's Extremes

State Highs State Lows

Community

WunderPhotos

Upload Photos

1,749,232 photos uploaded!

Nearby

Air Quality

  Air Quality AQ Index Pollutant
Yesterday Moderate
PM2.5
Yesterday Good
OZONE
Current Good
PM2.5
Monday Moderate
PM2.5
Monday Moderate
OZONE
Tuesday Good
PM2.5
Tuesday Good
OZONE

Snow Depth

Station Depth Elevation
No new snow has been reported.

Earthquake Activity

City Distance Mag. Time & Date
No recent earthquake activity has been reported nearby.
Minimum magnitude displayed is 2.5.

Coastal Water Temperatures

Place Temperature
Buffalo, NY 73.0 °F

Nearby Weather Stations